AirNav   Pilot Hours Calculator
 
 1258 users online  

2IS3 Jackson Field Airport
Elmira, Illinois, USA

GOING TO ELMIRA?


FAA INFORMATION EFFECTIVE 07 NOVEMBER 2019

Location

FAA Identifier: 2IS3
Lat/Long: 41-10-18.1330N 089-48-24.3710W
41-10.302217N 089-48.406183W
41.1717036,-89.8067697
(estimated)
Elevation: 760 ft. / 232 m (estimated)
Variation: 01E (1985)
From city: 1 mile SE of ELMIRA, IL
Time zone: UTC -6 (UTC -5 during Daylight Saving Time)
Zip code: 61483

Airport Operations

Airport use: Private use. Permission required prior to landing
Activation date: 12/1983
Control tower: no
ARTCC: CHICAGO CENTER
FSS: KANKAKEE FLIGHT SERVICE STATION
Attendance: DYLGT
Wind indicator: yes
Segmented circle: no

Nearby radio navigation aids

VOR radial/distance  VOR name  Freq  Var
BDFr274/9.9BRADFORD VORTAC114.7000E
PIAr355/29.5PEORIA VORTAC115.2004E
GBGr061/31.7GALESBURG VOR/DME109.8003E
MZVr098/38.6MOLINE VOR/DME114.4005E

Airport Services

Runway Information

Runway 9/27

Dimensions: 1900 x 80 ft. / 579 x 24 m
Surface: turf
RUNWAY 9  RUNWAY 27
Traffic pattern: leftleft

Airport Ownership and Management from official FAA records

Ownership: Privately-owned
Owner: DAVID W. JACKSON
13553 COUNTY HIGHWAY 23, BOX 338
TOULON, IL 61483-0338
Manager: DAVID W. JACKSON
13553 COUNTY HIGHWAY 23, BOX 338
TOULON, IL 61483-0338

Airport Operational Statistics

Aircraft based on the field: 2
Single engine airplanes: 2
    

Additional Remarks

FOR CD CTC CHICAGO ARTCC AT 630-906-8921.

Instrument Procedures

There are no published instrument procedures at 2IS3.

Some nearby airports with instrument procedures:

KEZI - Kewanee Municipal Airport (7 nm W)
C75 - Marshall County Airport (21 nm SE)
3MY - Mount Hawley Auxiliary Airport (24 nm S)
KPIA - General Downing - Peoria International Airport (31 nm S)
KVYS - Illinois Valley Regional Airport-Walter A Duncan Field (31 nm E)
 
Loc | Ops | Rwys | IFR | FBO | Links
Com | Nav | Svcs | Stats | Notes
Area around 2IS3 (Jackson Field Airport)
 
Road maps at: MapQuest Bing Google
 
Aerial photo
No photo
 
Sectional chart

 
Airport distance calculator
Flying to Jackson Field Airport? Find the distance to fly.

From to 2IS3

Sunrise and sunset
Times for 22-Nov-2019
 Local
(UTC-6)
 Zulu
(UTC)
Morning civil twilight06:2612:26
Sunrise06:5612:56
Sunset16:3422:34
Evening civil twilight17:0423:04

Current date and time
Zulu (UTC)  22-Nov-2019 23:06:20
Local (UTC-6)  22-Nov-2019 17:06:20
 
METAR
KC75 
21nm SE 
222255Z AUTO 10003KT 10SM CLR M01/M04 A3014 RMK AO2 T10061037
KPIA 
31nm S 
222254Z 00000KT 10SM CLR 01/M04 A3015 RMK AO2 SLP215 T00111039 $
KVYS 
31nm E 
222255Z AUTO 00000KT 10SM CLR 00/M04 A3015 RMK AO2 T00021044
KGBG 
32nm SW 
222255Z AUTO 00000KT 10SM CLR 00/M03 A3015 RMK AO2 T00001030
KSQI 
35nm N 
222256Z AUTO 00000KT 10SM CLR M01/M04 A3014 RMK AO2 SLP075 T10111039 FZRANO
KMLI 
36nm NW 
222252Z 00000KT 10SM CLR 02/M03 A3013 RMK AO2 SLP209 T00171033
TAF
KPIA 
31nm S 
221918Z 2219/2318 01005KT P6SM FEW020 FM230000 VRB04KT P6SM BKN200 FM230400 VRB03KT P6SM BKN150 FM231100 VRB03KT P6SM OVC070
KMLI 
36nm NW 
221720Z 2218/2318 36003KT P6SM SCT020 FM230700 VRB03KT P6SM SCT200 FM231000 VRB03KT P6SM OVC120
NOTAMs
Click for the latest NOTAMs
NOTAMs are issued by the DoD/FAA and will open in a separate window not controlled by AirNav.

 

 
 

Would you like to see your business listed on this page?

 If your business provides an interesting product or service to pilots, flight crews, aircraft, or users of the Jackson Field Airport, you should consider listing it here.  To start the listing process, click on the button below
 
Add a business
 

Other Pages about Jackson Field Airport

Update a link
 
Copyright © AirNav, LLC. All rights reserved. Privacy Policy  Contact